Latest Weather Observations for Mallacoota

IDV60801

Issued at 2:31 pm EDT Sunday 25 January 2015 (issued every 30 minutes, with the page automatically refreshed every 10 minutes)

About weather observations | Map of weather stations | Latest weather observations for VIC | Other Formats
Station Details ID: 084084 Name: MALLACOOTA Lat: -37.60 Lon: 149.73 Height: 22.0 m
Data from the previous 72 hours. | See also: Recent months at Mallacoota
Date/Time
EDT
Temp
°C
App
Temp
°C
Dew
Point
Rel
Hum
%
Delta-T
°C
Wind Press
QNH
hPa
Press
MSL
hPa
Rain
since 9 am
mm
Dir
 
Spd
km/h
Gust
km/h
Spd
kts
Gust
kts
25/02:30pm 18.9 14.6 12.2 65 3.7 SSW 26 39 14 21 1005.2 - 0.0
25/02:00pm 18.2 13.6 12.2 68 3.3 SSW 28 44 15 24 1004.7 - 0.0
25/01:43pm 18.1 13.7 12.8 71 3.0 SSW 28 46 15 25 1004.6 - 0.0
25/01:30pm 18.4 14.4 13.0 71 3.0 SSW 26 44 14 24 1004.6 - 0.0
25/01:00pm 19.3 15.2 13.9 71 3.1 SSW 28 46 15 25 1004.3 - 0.0
25/12:48pm 19.4 15.4 14.2 72 3.0 SSW 28 48 15 26 1004.1 - 0.0
25/12:30pm 18.7 15.0 14.0 74 2.7 SSW 26 43 14 23 1004.1 - 0.0
25/12:01pm 19.7 15.5 14.7 73 2.9 SSW 30 48 16 26 1003.7 - 0.0
25/12:00pm 19.8 16.0 14.8 73 2.9 SSW 28 44 15 24 1003.7 1003.6 0.0
25/11:30am 22.5 20.4 15.1 63 4.4 SW 20 33 11 18 1003.2 - 0.0
25/11:00am 21.9 22.1 15.7 68 3.7 WSW 9 17 5 9 1003.3 - 0.0
25/10:30am 20.4 20.0 16.2 77 2.5 SSW 13 22 7 12 1003.2 - 0.0
25/10:00am 20.4 18.9 16.2 77 2.5 SSW 19 30 10 16 1003.1 - 0.0
25/09:30am 20.5 19.4 17.7 84 1.7 SW 20 32 11 17 1002.8 - 0.0
25/09:00am 19.9 19.9 18.2 90 1.1 SW 15 28 8 15 1002.7 1002.6 18.0
25/08:30am 20.1 20.0 18.8 92 0.8 SW 17 26 9 14 1002.1 - 18.0
25/08:00am 20.1 22.2 18.9 93 0.8 WSW 6 9 3 5 1001.3 - 18.0
25/07:30am 19.5 21.4 18.5 94 0.6 N 6 9 3 5 1000.9 - 18.0
25/07:00am 19.0 20.7 18.0 94 0.6 WNW 6 9 3 5 1000.5 - 18.0
25/06:30am 18.6 19.9 17.6 94 0.6 WNW 7 11 4 6 1000.2 - 18.0
25/06:00am 18.4 19.6 17.4 94 0.6 W 7 11 4 6 999.9 999.8 17.8
25/05:30am 18.4 19.2 17.2 93 0.7 W 9 13 5 7 999.7 - 17.8
25/05:00am 18.8 20.3 17.6 93 0.7 W 6 9 3 5 999.7 - 17.8
25/04:30am 19.1 20.2 17.9 93 0.7 SW 9 13 5 7 999.3 - 17.8
25/04:00am 19.1 20.7 17.8 92 0.8 W 6 7 3 4 999.4 - 17.8
25/03:30am 19.6 22.5 18.1 91 0.9 CALM 0 0 0 0 999.7 - 17.8
25/03:00am 20.4 21.9 18.9 91 0.9 N 9 13 5 7 999.8 999.7 17.8
25/02:30am 20.6 21.0 19.1 91 0.9 N 15 22 8 12 1000.1 - 17.8
25/02:00am 20.5 21.3 19.0 91 0.9 N 13 17 7 9 1000.6 - 17.8
25/01:30am 20.6 20.7 19.1 91 0.9 N 17 28 9 15 1001.1 - 17.8
25/01:00am 20.5 21.7 19.0 91 0.9 N 11 17 6 9 1001.3 - 17.8
25/12:30am 20.5 21.4 19.2 92 0.8 N 13 20 7 11 1001.7 - 17.8
25/12:00am 20.3 21.1 19.0 92 0.8 N 13 19 7 10 1001.5 1001.4 17.8
 
Date/Time
EDT
Temp
°C
App
Temp
°C
Dew
Point
Rel
Hum
%
Delta-T
°C
Wind Press
QNH
hPa
Press
MSL
hPa
Rain
since 9 am
mm
Dir
 
Spd
km/h
Gust
km/h
Spd
kts
Gust
kts
24/11:30pm 19.9 20.5 18.7 93 0.7 N 13 17 7 9 1001.7 - 17.8
24/11:00pm 19.9 21.3 18.7 93 0.7 N 9 11 5 6 1001.8 - 17.8
24/10:30pm 19.9 21.3 18.7 93 0.7 N 9 13 5 7 1002.8 - 17.8
24/10:00pm 19.7 21.0 18.5 93 0.7 NE 9 20 5 11 1002.7 - 17.8
24/09:30pm 19.7 20.6 18.5 93 0.7 NNE 11 17 6 9 1002.7 - 17.8
24/09:00pm 19.5 19.2 18.3 93 0.7 ENE 17 24 9 13 1003.1 1003.0 17.8
24/08:30pm 19.5 21.1 18.2 92 0.8 ENE 7 13 4 7 1003.7 - 17.8
24/08:00pm 19.7 21.4 18.4 92 0.8 NE 7 11 4 6 1004.4 - 16.4
24/07:30pm 19.5 19.9 18.2 92 0.8 NW 13 22 7 12 1004.5 - 14.2
24/07:00pm 19.7 19.8 18.4 92 0.8 N 15 22 8 12 1004.7 - 13.2
24/06:30pm 20.0 21.6 18.3 90 1.1 WNW 7 15 4 8 1005.1 - 9.8
24/06:00pm 22.1 23.3 20.0 88 1.4 SW 13 20 7 11 1003.6 1003.5 0.0
24/05:30pm 21.0 21.2 18.6 86 1.5 S 15 20 8 11 1002.1 - 0.0
24/05:00pm 21.8 22.5 18.8 83 1.9 S 13 20 7 11 1002.1 - 0.0
24/04:30pm 25.6 29.3 20.8 75 3.2 ESE 2 9 1 5 1002.0 - 0.0
24/04:00pm 26.2 28.4 20.5 71 3.7 E 9 13 5 7 1002.0 - 0.0
24/03:30pm 24.5 26.1 20.0 76 2.9 ENE 11 15 6 8 1002.2 - 0.0
24/03:00pm 25.1 26.7 19.9 73 3.4 ENE 11 19 6 10 1002.8 1002.7 0.0
24/02:30pm 26.2 27.0 19.8 68 4.2 N 15 20 8 11 1003.1 - 0.0
24/02:00pm 26.1 27.3 20.0 69 4.0 N 13 24 7 13 1003.5 - 0.0
24/01:30pm 26.2 26.5 19.6 67 4.3 N 17 22 9 12 1003.8 - 0.0
24/01:00pm 26.4 27.6 20.0 68 4.2 N 13 20 7 11 1004.0 - 0.0
24/12:30pm 25.9 26.6 20.5 72 3.5 N 17 24 9 13 1004.2 - 0.0
24/12:00pm 22.7 24.7 19.1 80 2.3 ENE 7 11 4 6 1004.3 1004.2 0.0
24/11:30am 21.9 22.7 18.1 79 2.4 E 11 15 6 8 1004.6 - 0.0
24/11:00am 23.2 24.5 19.4 79 2.4 NNE 11 20 6 11 1004.8 - 0.0
24/10:30am 22.4 23.3 18.4 78 2.5 NE 11 19 6 10 1005.1 - 0.0
24/10:00am 21.1 20.9 17.7 81 2.1 N 15 19 8 10 1005.5 - 0.0
24/09:30am 20.7 21.5 17.3 81 2.1 N 9 13 5 7 1005.7 - 0.0
24/09:00am 20.4 20.8 17.2 82 2.0 N 11 15 6 8 1005.9 1005.8 3.8
24/08:30am 19.7 19.9 16.7 83 1.8 NNE 11 15 6 8 1006.3 - 3.8
24/08:00am 19.0 19.1 16.6 86 1.4 NNE 11 15 6 8 1006.4 - 3.8
24/07:30am 18.8 19.8 16.9 89 1.1 NNE 7 9 4 5 1006.5 - 3.8
24/07:00am 18.5 20.4 16.8 90 1.0 N 2 6 1 3 1006.5 - 3.8
24/06:30am 18.3 20.5 16.6 90 1.0 CALM 0 0 0 0 1006.7 - 3.8
24/06:00am 18.1 20.3 16.6 91 0.9 CALM 0 0 0 0 1006.6 1006.5 3.8
24/05:30am 17.9 18.9 16.4 91 0.9 WNW 6 7 3 4 1006.7 - 3.8
24/05:00am 17.8 18.6 16.3 91 0.9 NW 7 9 4 5 1006.7 - 3.8
24/04:30am 17.8 18.8 16.3 91 0.9 N 6 7 3 4 1006.6 - 3.8
24/04:00am 17.8 18.8 16.3 91 0.9 WNW 6 9 3 5 1007.0 - 3.8
24/03:30am 17.8 18.6 16.3 91 0.9 NW 7 9 4 5 1007.2 - 3.8
24/03:00am 17.9 18.9 16.4 91 0.9 NW 6 9 3 5 1007.7 1007.6 3.8
24/02:30am 18.0 18.9 16.5 91 0.9 NW 7 13 4 7 1008.0 - 3.8
24/02:00am 17.9 18.7 16.4 91 0.9 WNW 7 11 4 6 1008.2 - 3.8
24/01:30am 17.9 18.9 16.4 91 0.9 WNW 6 11 3 6 1008.4 - 3.8
24/01:00am 17.8 18.6 16.3 91 0.9 WNW 7 9 4 5 1008.8 - 3.8
24/12:30am 17.6 18.5 16.1 91 0.9 NW 6 7 3 4 1009.0 - 3.8
24/12:00am 17.6 18.5 16.1 91 0.9 NNW 6 7 3 4 1009.4 1009.3 3.8
 
Date/Time
EDT
Temp
°C
App
Temp
°C
Dew
Point
Rel
Hum
%
Delta-T
°C
Wind Press
QNH
hPa
Press
MSL
hPa
Rain
since 9 am
mm
Dir
 
Spd
km/h
Gust
km/h
Spd
kts
Gust
kts
23/11:30pm 17.7 18.6 16.0 90 1.0 W 6 7 3 4 1009.6 - 3.8
23/11:00pm 17.7 18.4 16.0 90 1.0 W 7 11 4 6 1009.7 - 3.8
23/10:30pm 17.7 18.3 15.9 89 1.1 WSW 7 11 4 6 1009.3 - 3.8
23/10:00pm 17.8 18.4 15.4 86 1.4 W 6 7 3 4 1009.1 - 3.8
23/09:30pm 18.3 18.8 15.6 84 1.6 SW 7 11 4 6 1008.7 - 3.8
23/09:00pm 19.0 20.7 16.2 84 1.7 WSW 2 7 1 4 1008.0 1007.9 3.8
23/08:30pm 19.8 20.1 15.9 78 2.3 SW 9 17 5 9 1007.5 - 3.6
23/08:00pm 20.4 20.0 16.2 77 2.5 W 13 22 7 12 1007.2 - 3.6
23/07:30pm 20.9 21.2 17.9 83 1.9 W 13 24 7 13 1006.6 - 3.6
23/07:00pm 21.4 21.8 19.0 86 1.5 WSW 15 26 8 14 1006.1 - 3.6
23/06:30pm 23.3 24.7 20.4 84 1.9 W 13 22 7 12 1005.5 - 3.2
23/06:00pm 24.1 26.7 21.2 84 1.9 WSW 9 13 5 7 1005.2 1005.1 3.2
23/05:30pm 23.2 25.9 21.3 89 1.2 NW 9 15 5 8 1004.1 - 3.2
23/05:00pm 21.9 23.0 19.6 87 1.5 N 13 19 7 10 1004.3 - 3.2
23/04:30pm 21.9 23.4 19.8 88 1.3 NW 11 17 6 9 1004.0 - 3.2
23/04:00pm 23.2 25.0 20.3 84 1.9 SSW 11 15 6 8 1003.5 - 1.8
23/03:30pm 23.3 24.9 19.9 81 2.2 ENE 11 19 6 10 1002.5 - 1.4
23/03:00pm 24.5 25.4 19.3 73 3.3 NNE 13 19 7 10 1003.1 1003.0 0.8
23/02:30pm 24.8 24.5 19.2 71 3.6 ENE 19 32 10 17 1002.7 - 0.0
23/02:00pm 26.0 25.5 19.9 69 4.0 ENE 22 32 12 17 1002.9 - 0.0
23/01:30pm 26.1 26.4 19.7 68 4.1 ENE 17 24 9 13 1003.3 - 0.0
23/01:00pm 26.1 27.1 19.5 67 4.3 NE 13 22 7 12 1003.6 - 0.0
23/12:30pm 26.7 28.8 20.1 67 4.3 NNE 9 15 5 8 1003.9 - 0.0
23/12:00pm 29.4 29.8 19.1 54 6.7 ENE 15 20 8 11 1004.2 1004.1 0.0
23/11:30am 31.9 32.9 20.2 50 7.8 N 15 24 8 13 1004.6 - 0.0
23/11:00am 30.2 30.2 18.9 50 7.3 N 17 22 9 12 1004.9 - 0.0
23/10:30am 29.9 29.8 18.7 51 7.2 NNW 17 28 9 15 1005.1 - 0.0
23/10:00am 29.0 28.8 18.4 52 6.8 N 17 26 9 14 1005.2 - 0.0
23/09:30am 28.3 28.7 19.8 60 5.6 N 17 22 9 12 1005.4 - 0.0
23/09:00am 27.0 27.8 19.9 65 4.6 N 15 22 8 12 1005.7 1005.6 0.0
23/08:30am 25.6 26.8 19.9 70 3.7 N 13 22 7 12 1005.8 - 0.0
23/08:00am 24.1 25.5 19.6 76 2.9 N 11 19 6 10 1005.9 - 0.0
23/07:30am 23.0 23.6 19.4 80 2.3 N 15 22 8 12 1005.7 - 0.0
23/07:00am 22.0 22.6 19.4 85 1.7 NNW 15 20 8 11 1005.5 - 0.0
23/06:30am 21.3 21.7 19.0 87 1.5 N 15 24 8 13 1005.4 - 0.0
23/06:00am 21.3 21.7 19.0 87 1.5 NNW 15 20 8 11 1005.4 1005.3 0.0
23/05:30am 21.5 21.9 19.1 86 1.5 N 15 24 8 13 1005.4 - 0.0
23/05:00am 21.6 22.1 19.2 86 1.5 N 15 22 8 12 1005.5 - 0.0
23/04:30am 21.6 22.1 19.2 86 1.5 NNW 15 22 8 12 1005.5 - 0.0
23/04:00am 21.8 22.3 19.2 85 1.6 N 15 20 8 11 1005.7 - 0.0
23/03:30am 21.9 22.3 19.1 84 1.8 N 15 20 8 11 1006.0 - 0.0
23/03:00am 21.7 22.5 19.1 85 1.6 N 13 19 7 10 1006.3 1006.2 0.0
23/02:30am 21.9 23.0 18.9 83 1.9 N 11 17 6 9 1006.7 - 0.0
23/02:00am 22.1 22.5 19.1 83 1.9 N 15 22 8 12 1007.2 - 0.0
23/01:30am 22.3 22.7 18.9 81 2.1 N 15 26 8 14 1007.4 - 0.0
23/01:00am 22.4 22.0 19.0 81 2.2 N 19 26 10 14 1007.6 - 0.0
23/12:30am 22.6 22.1 19.0 80 2.3 N 20 30 11 16 1008.2 - 0.0
23/12:00am 22.8 21.5 19.0 79 2.4 N 24 33 13 18 1008.4 1008.3 0.0
 
Date/Time
EDT
Temp
°C
App
Temp
°C
Dew
Point
Rel
Hum
%
Delta-T
°C
Wind Press
QNH
hPa
Press
MSL
hPa
Rain
since 9 am
mm
Dir
 
Spd
km/h
Gust
km/h
Spd
kts
Gust
kts
22/11:30pm 22.3 21.9 19.3 83 1.9 N 20 32 11 17 1008.5 - 0.0
22/11:00pm 22.9 22.4 19.1 79 2.4 N 20 32 11 17 1008.9 - 0.0
22/10:30pm 22.9 23.0 19.1 79 2.4 N 17 24 9 13 1009.3 - 0.0
22/10:00pm 22.9 23.3 18.9 78 2.5 NNE 15 26 8 14 1009.5 - 0.0
22/09:30pm 23.2 23.9 18.9 77 2.7 N 13 20 7 11 1009.5 - 0.0
22/09:00pm 23.3 23.0 18.2 73 3.2 NNE 17 22 9 12 1009.3 1009.2 0.0
22/08:30pm 23.7 23.7 18.1 71 3.5 N 15 22 8 12 1009.1 - 0.0
22/08:00pm 24.2 23.7 17.9 68 3.9 N 17 24 9 13 1008.7 - 0.0
22/07:30pm 25.0 24.1 17.7 64 4.6 NNE 19 33 10 18 1008.4 - 0.0
22/07:00pm 25.7 24.7 17.6 61 5.1 N 19 32 10 17 1008.3 - 0.0
22/06:30pm 26.3 24.9 17.9 60 5.3 N 22 32 12 17 1008.1 - 0.0
22/06:00pm 27.1 26.7 18.9 61 5.3 NNE 19 28 10 15 1008.0 1007.9 0.0
22/05:30pm 27.9 27.4 19.1 58 5.7 NNE 20 32 11 17 1008.1 - 0.0
22/05:00pm 27.6 27.0 18.9 59 5.6 NNE 20 33 11 18 1008.0 - 0.0
22/04:30pm 27.8 27.3 19.1 59 5.6 NNE 20 30 11 16 1008.2 - 0.0
22/04:00pm 28.4 28.4 20.1 60 5.4 NNE 20 28 11 15 1008.4 - 0.0
22/03:30pm 27.6 29.0 20.4 65 4.7 NE 13 19 7 10 1008.6 - 0.0
22/03:00pm 29.3 29.7 19.9 57 6.2 NE 17 26 9 14 1008.9 1008.8 0.0

Other Formats:

Comma delimited format used in spreadsheet applications
http://www.bom.gov.au/fwo/IDV60801/IDV60801.94935.axf

JavaScript Object Notation format (JSON) in row-major order
http://www.bom.gov.au/fwo/IDV60801/IDV60801.94935.json